Time;durP1;ratioP1;P1;durP2;ratioP2;P2;SDS_P1;SDS_P2;PMS_P1;PMS_P2;Temp;Humidity;BMP_temperature;BMP_pressure;BME280_temperature;BME280_humidity;BME280_pressure;Samples;Min_cycle;Max_cycle;Signal;HPM_P1;HPM_P2
2022/12/01 19:59:55;;;;;;;52.87;30.20;;;;;;;4.21;79.34;101441.13;2494007;77;25706;-81
2022/12/01 20:03:41;;;;;;;58.48;31.55;;;;;;;4.63;78.12;101445.62;2453775;77;25603;-83
2022/12/01 20:07:11;;;;;;;42.62;28.57;;;;;;;4.71;77.20;101441.84;2493422;78;25149;-83
2022/12/01 20:10:53;;;;;;;42.33;30.23;;;;;;;4.83;76.23;101440.45;2495773;78;25665;-83
2022/12/01 20:14:25;;;;;;;44.00;28.35;;;;;;;5.03;75.70;101436.54;2383166;80;26218;-90
2022/12/01 20:17:58;;;;;;;28.55;22.62;;;;;;;5.26;75.12;101443.11;2427750;80;26359;-83
2022/12/01 20:21:38;;;;;;;29.05;20.32;;;;;;;5.50;74.52;101448.93;2385684;82;25757;-84
2022/12/01 20:25:08;;;;;;;23.55;17.50;;;;;;;5.71;73.98;101446.73;2386446;81;25962;-84
2022/12/01 20:28:42;;;;;;;17.17;13.68;;;;;;;5.91;73.50;101438.47;2382417;81;34787;-83
2022/12/01 20:32:15;;;;;;;16.23;12.50;;;;;;;6.11;73.06;101444.85;2164170;91;26021;-82
2022/12/01 20:35:33;;;;;;;16.27;12.13;;;;;;;6.28;72.58;101438.06;2162960;89;25993;-83
2022/12/01 20:39:05;;;;;;;19.60;11.80;;;;;;;6.44;72.15;101446.29;2164829;91;26296;-83
2022/12/01 20:42:31;;;;;;;15.45;12.20;;;;;;;6.57;71.72;101442.70;2132746;92;25814;-83
2022/12/01 20:45:52;;;;;;;18.07;12.78;;;;;;;6.68;71.25;101440.30;2138943;91;25788;-83
2022/12/01 20:49:32;;;;;;;17.65;12.05;;;;;;;6.80;70.83;101445.30;2140224;92;25793;-82
2022/12/01 20:52:58;;;;;;;16.52;11.65;;;;;;;6.88;70.41;101446.60;2143887;92;26415;-82
2022/12/01 20:56:28;;;;;;;13.75;11.63;;;;;;;6.95;69.91;101455.61;2140959;90;26549;-88
2022/12/01 21:00:11;;;;;;;17.12;11.80;;;;;;;7.00;69.99;101435.62;2043363;96;26751;-83
2022/12/01 21:03:47;;;;;;;14.15;11.68;;;;;;;7.50;72.12;101445.66;2044278;96;25884;-81
2022/12/01 21:07:03;;;;;;;14.25;12.00;;;;;;;7.64;70.68;101443.78;2044302;95;25780;-83
2022/12/01 21:10:31;;;;;;;13.88;11.68;;;;;;;7.65;69.94;101436.47;2019997;96;25834;-81
2022/12/01 21:14:02;;;;;;;17.95;10.93;;;;;;;7.65;69.40;101436.47;1992284;99;25817;-82
2022/12/01 21:17:42;;;;;;;16.62;11.65;;;;;;;7.67;68.95;101438.75;2001606;97;25853;-83
2022/12/01 21:21:26;;;;;;;14.23;11.28;;;;;;;7.66;68.52;101431.75;2026677;96;26238;-78
2022/12/01 21:24:54;;;;;;;16.85;11.83;;;;;;;7.66;68.14;101442.14;2043263;96;25737;-83
2022/12/01 21:28:28;;;;;;;13.18;11.30;;;;;;;7.66;67.78;101435.27;2092857;89;25943;-82
2022/12/01 21:32:04;;;;;;;18.40;12.40;;;;;;;7.66;67.40;101440.84;2205502;88;25741;-82
2022/12/01 21:39:07;;;;;;;15.53;11.73;;;;;;;7.65;66.75;101438.66;2129482;90;25850;-81
2022/12/01 21:42:50;;;;;;;18.73;11.80;;;;;;;7.65;66.46;101432.58;2115424;92;25791;-86
2022/12/01 21:46:18;;;;;;;15.10;11.93;;;;;;;7.64;66.19;101432.10;2111911;92;25789;-83
2022/12/01 21:49:53;;;;;;;20.30;12.33;;;;;;;7.63;65.89;101429.00;2130220;91;25986;-82
2022/12/01 21:53:27;;;;;;;15.58;11.78;;;;;;;7.62;65.72;101430.70;2129147;91;25879;-82
2022/12/01 21:57:06;;;;;;;15.58;12.33;;;;;;;7.62;65.48;101435.01;2129980;91;25770;-83
2022/12/01 22:00:51;;;;;;;18.15;12.03;;;;;;;7.62;65.26;101425.92;2108538;92;25709;-82
2022/12/01 22:04:34;;;;;;;19.50;12.10;;;;;;;7.61;65.03;101432.83;2153882;91;25788;-82
2022/12/01 22:08:21;;;;;;;19.80;12.05;;;;;;;7.60;64.83;101427.57;2158998;89;25765;-82
2022/12/01 22:12:07;;;;;;;14.05;12.33;;;;;;;7.58;64.65;101427.06;2194337;88;25870;-81
2022/12/01 22:15:41;;;;;;;15.00;12.00;;;;;;;7.58;64.48;101425.77;2148688;89;25720;-82
2022/12/01 22:19:13;;;;;;;22.02;14.15;;;;;;;7.57;64.36;101423.98;2228657;87;25861;-83
2022/12/01 22:22:38;;;;;;;16.32;11.70;;;;;;;7.57;64.18;101427.00;2238964;87;25800;-81
2022/12/01 22:25:58;;;;;;;16.37;12.90;;;;;;;7.57;64.05;101429.59;2239560;87;26444;-81
2022/12/01 22:29:36;;;;;;;18.67;13.28;;;;;;;7.57;63.93;101429.18;2234709;86;25770;-82
2022/12/01 22:36:59;;;;;;;20.37;13.88;;;;;;;7.56;63.64;101414.43;2101106;92;25786;-81
2022/12/01 22:40:54;;;;;;;16.87;12.60;;;;;;;7.55;63.53;101406.13;2044228;95;25826;-82
2022/12/01 22:44:41;;;;;;;;;;;;;;;;;;;;;
2022/12/01 22:48:10;;;;;;;15.32;12.03;;;;;;;7.52;63.20;101413.76;2055351;94;26467;-81
2022/12/01 22:51:53;;;;;;;18.17;13.62;;;;;;;7.51;63.05;101415.88;2032468;96;25798;-82
2022/12/01 22:55:20;;;;;;;16.70;12.55;;;;;;;7.49;62.91;101411.03;2048555;93;25828;-81
2022/12/01 22:58:48;;;;;;;17.07;12.43;;;;;;;7.47;62.82;101410.05;2123161;90;25761;-81
2022/12/01 23:02:26;;;;;;;14.47;12.05;;;;;;;7.47;62.69;101413.05;2110350;90;26052;-82
2022/12/01 23:05:58;;;;;;;17.17;13.00;;;;;;;7.45;62.58;101405.17;2136177;91;25689;-82
2022/12/01 23:09:27;;;;;;;12.93;11.57;;;;;;;7.43;62.47;101407.22;2184955;90;25756;-81
2022/12/01 23:12:56;;;;;;;19.50;13.53;;;;;;;7.42;62.36;101407.60;2183174;89;25735;-80
2022/12/01 23:16:26;;;;;;;17.12;12.28;;;;;;;7.41;62.23;101403.64;2183733;90;25810;-81
2022/12/01 23:20:06;;;;;;;13.73;12.30;;;;;;;7.38;62.10;101392.69;2185569;90;25895;-82
2022/12/01 23:23:36;;;;;;;16.05;12.28;;;;;;;7.38;62.04;101400.47;2184734;87;26059;-81
2022/12/01 23:26:56;;;;;;;18.32;13.00;;;;;;;7.37;61.93;101397.41;2179354;89;25266;-82
2022/12/01 23:30:41;;;;;;;13.00;11.60;;;;;;;7.35;61.83;101397.72;2256693;85;25756;-81
2022/12/01 23:34:20;;;;;;;18.42;12.35;;;;;;;7.36;61.74;101397.30;2310355;85;25758;-82
2022/12/01 23:38:13;;;;;;;17.23;12.53;;;;;;;7.35;61.67;101400.31;2256173;87;25832;-81
2022/12/01 23:41:58;;;;;;;;;;;;;;;;;;;;;
2022/12/01 23:45:27;;;;;;;15.10;12.58;;;;;;;7.32;61.44;101392.36;2253943;86;25873;-81
2022/12/01 23:52:46;;;;;;;17.15;12.45;;;;;;;7.29;61.28;101390.94;2161161;90;25954;-81
